sensor_id;sensor_type;location;lat;lon;timestamp;P1;durP1;ratioP1;P2;durP2;ratioP2
46481;SDS011;32193;51.446;6.792;2022-11-13T00:00:31;28.58;;;17.00;;
46481;SDS011;32193;51.446;6.792;2022-11-13T00:02:57;28.17;;;16.65;;
46481;SDS011;32193;51.446;6.792;2022-11-13T00:05:22;29.88;;;16.05;;
46481;SDS011;32193;51.446;6.792;2022-11-13T00:07:48;29.25;;;17.08;;
46481;SDS011;32193;51.446;6.792;2022-11-13T00:10:14;27.13;;;16.75;;
46481;SDS011;32193;51.446;6.792;2022-11-13T00:12:40;30.88;;;17.95;;
46481;SDS011;32193;51.446;6.792;2022-11-13T00:15:06;28.45;;;18.17;;
46481;SDS011;32193;51.446;6.792;2022-11-13T00:17:31;32.85;;;19.02;;
46481;SDS011;32193;51.446;6.792;2022-11-13T00:19:57;30.02;;;19.77;;
46481;SDS011;32193;51.446;6.792;2022-11-13T00:22:23;31.83;;;18.15;;
46481;SDS011;32193;51.446;6.792;2022-11-13T00:24:48;32.25;;;18.10;;
46481;SDS011;32193;51.446;6.792;2022-11-13T00:27:14;24.77;;;16.55;;
46481;SDS011;32193;51.446;6.792;2022-11-13T00:29:40;29.67;;;17.88;;
46481;SDS011;32193;51.446;6.792;2022-11-13T00:32:05;26.48;;;18.00;;
46481;SDS011;32193;51.446;6.792;2022-11-13T00:34:31;36.22;;;19.13;;
46481;SDS011;32193;51.446;6.792;2022-11-13T00:36:57;34.83;;;19.83;;
46481;SDS011;32193;51.446;6.792;2022-11-13T00:39:22;29.58;;;18.63;;
46481;SDS011;32193;51.446;6.792;2022-11-13T00:41:48;25.33;;;15.75;;
46481;SDS011;32193;51.446;6.792;2022-11-13T00:44:14;26.70;;;14.82;;
46481;SDS011;32193;51.446;6.792;2022-11-13T00:46:40;25.95;;;15.90;;
46481;SDS011;32193;51.446;6.792;2022-11-13T00:49:05;26.45;;;15.30;;
46481;SDS011;32193;51.446;6.792;2022-11-13T00:51:31;27.40;;;15.32;;
46481;SDS011;32193;51.446;6.792;2022-11-13T00:53:56;25.45;;;14.32;;
46481;SDS011;32193;51.446;6.792;2022-11-13T00:56:22;27.77;;;15.38;;
46481;SDS011;32193;51.446;6.792;2022-11-13T00:58:48;23.80;;;14.95;;
46481;SDS011;32193;51.446;6.792;2022-11-13T01:01:15;22.98;;;13.50;;
46481;SDS011;32193;51.446;6.792;2022-11-13T01:03:42;25.55;;;15.02;;
46481;SDS011;32193;51.446;6.792;2022-11-13T01:06:29;31.02;;;17.88;;
46481;SDS011;32193;51.446;6.792;2022-11-13T01:08:54;32.47;;;18.80;;
46481;SDS011;32193;51.446;6.792;2022-11-13T01:11:22;29.40;;;18.25;;
46481;SDS011;32193;51.446;6.792;2022-11-13T01:13:49;32.33;;;18.05;;
46481;SDS011;32193;51.446;6.792;2022-11-13T01:16:16;32.63;;;18.75;;
46481;SDS011;32193;51.446;6.792;2022-11-13T01:18:43;27.50;;;16.75;;
46481;SDS011;32193;51.446;6.792;2022-11-13T01:21:10;23.92;;;15.40;;
46481;SDS011;32193;51.446;6.792;2022-11-13T01:23:36;28.38;;;17.88;;
46481;SDS011;32193;51.446;6.792;2022-11-13T01:26:10;27.63;;;16.00;;
46481;SDS011;32193;51.446;6.792;2022-11-13T01:28:39;25.33;;;14.75;;
46481;SDS011;32193;51.446;6.792;2022-11-13T01:31:06;23.70;;;15.20;;
46481;SDS011;32193;51.446;6.792;2022-11-13T01:33:33;19.63;;;13.40;;
46481;SDS011;32193;51.446;6.792;2022-11-13T01:36:00;21.83;;;14.27;;
46481;SDS011;32193;51.446;6.792;2022-11-13T01:38:28;26.35;;;15.18;;
46481;SDS011;32193;51.446;6.792;2022-11-13T01:40:54;22.58;;;14.50;;
46481;SDS011;32193;51.446;6.792;2022-11-13T01:43:24;23.75;;;13.65;;
46481;SDS011;32193;51.446;6.792;2022-11-13T01:48:27;22.25;;;15.30;;
46481;SDS011;32193;51.446;6.792;2022-11-13T01:51:04;26.55;;;15.48;;
46481;SDS011;32193;51.446;6.792;2022-11-13T01:53:36;28.80;;;16.30;;
46481;SDS011;32193;51.446;6.792;2022-11-13T01:56:02;25.60;;;15.35;;
46481;SDS011;32193;51.446;6.792;2022-11-13T01:58:27;24.08;;;15.15;;
46481;SDS011;32193;51.446;6.792;2022-11-13T02:00:53;23.02;;;14.70;;
46481;SDS011;32193;51.446;6.792;2022-11-13T02:03:19;24.38;;;15.45;;
46481;SDS011;32193;51.446;6.792;2022-11-13T02:05:45;26.33;;;14.63;;
46481;SDS011;32193;51.446;6.792;2022-11-13T02:08:10;26.85;;;16.55;;
46481;SDS011;32193;51.446;6.792;2022-11-13T02:10:36;23.85;;;15.48;;
46481;SDS011;32193;51.446;6.792;2022-11-13T02:13:01;26.15;;;16.13;;
46481;SDS011;32193;51.446;6.792;2022-11-13T02:15:27;22.05;;;14.52;;
46481;SDS011;32193;51.446;6.792;2022-11-13T02:17:58;26.45;;;16.02;;
46481;SDS011;32193;51.446;6.792;2022-11-13T02:20:34;21.83;;;14.07;;
46481;SDS011;32193;51.446;6.792;2022-11-13T02:23:23;24.58;;;15.45;;
46481;SDS011;32193;51.446;6.792;2022-11-13T02:26:09;23.30;;;14.23;;
46481;SDS011;32193;51.446;6.792;2022-11-13T02:28:35;22.08;;;13.77;;
46481;SDS011;32193;51.446;6.792;2022-11-13T02:31:05;28.02;;;14.35;;
46481;SDS011;32193;51.446;6.792;2022-11-13T02:33:32;27.67;;;16.50;;
46481;SDS011;32193;51.446;6.792;2022-11-13T02:35:58;29.38;;;17.10;;
46481;SDS011;32193;51.446;6.792;2022-11-13T02:38:24;24.98;;;16.00;;
46481;SDS011;32193;51.446;6.792;2022-11-13T02:40:49;22.10;;;13.30;;
46481;SDS011;32193;51.446;6.792;2022-11-13T02:43:15;23.10;;;13.30;;
46481;SDS011;32193;51.446;6.792;2022-11-13T02:45:40;24.48;;;13.35;;
46481;SDS011;32193;51.446;6.792;2022-11-13T02:48:07;25.33;;;15.38;;
46481;SDS011;32193;51.446;6.792;2022-11-13T02:50:33;27.52;;;14.70;;
46481;SDS011;32193;51.446;6.792;2022-11-13T02:52:59;20.85;;;14.05;;
46481;SDS011;32193;51.446;6.792;2022-11-13T02:55:25;23.17;;;13.88;;
46481;SDS011;32193;51.446;6.792;2022-11-13T02:57:50;25.42;;;13.90;;
46481;SDS011;32193;51.446;6.792;2022-11-13T03:00:16;22.33;;;14.27;;
46481;SDS011;32193;51.446;6.792;2022-11-13T03:02:42;22.92;;;14.18;;
46481;SDS011;32193;51.446;6.792;2022-11-13T03:05:08;22.38;;;14.40;;
46481;SDS011;32193;51.446;6.792;2022-11-13T03:07:34;25.40;;;13.98;;
46481;SDS011;32193;51.446;6.792;2022-11-13T03:10:00;23.15;;;15.38;;
46481;SDS011;32193;51.446;6.792;2022-11-13T03:12:25;24.15;;;14.70;;
46481;SDS011;32193;51.446;6.792;2022-11-13T03:14:51;21.17;;;14.23;;
46481;SDS011;32193;51.446;6.792;2022-11-13T03:17:17;23.27;;;14.77;;
46481;SDS011;32193;51.446;6.792;2022-11-13T03:19:43;22.58;;;12.57;;
46481;SDS011;32193;51.446;6.792;2022-11-13T03:22:09;20.90;;;12.77;;
46481;SDS011;32193;51.446;6.792;2022-11-13T03:24:35;17.73;;;12.10;;
46481;SDS011;32193;51.446;6.792;2022-11-13T03:27:00;20.90;;;12.32;;
46481;SDS011;32193;51.446;6.792;2022-11-13T03:29:26;19.55;;;12.25;;
46481;SDS011;32193;51.446;6.792;2022-11-13T03:31:51;17.45;;;11.35;;
46481;SDS011;32193;51.446;6.792;2022-11-13T03:34:17;18.15;;;11.48;;
46481;SDS011;32193;51.446;6.792;2022-11-13T03:36:42;21.30;;;11.93;;
46481;SDS011;32193;51.446;6.792;2022-11-13T03:39:08;21.48;;;10.70;;
46481;SDS011;32193;51.446;6.792;2022-11-13T03:41:34;21.13;;;11.18;;
46481;SDS011;32193;51.446;6.792;2022-11-13T03:43:59;17.58;;;10.63;;
46481;SDS011;32193;51.446;6.792;2022-11-13T03:46:25;23.80;;;11.50;;
46481;SDS011;32193;51.446;6.792;2022-11-13T03:48:51;18.35;;;10.57;;
46481;SDS011;32193;51.446;6.792;2022-11-13T03:51:16;18.65;;;10.73;;
46481;SDS011;32193;51.446;6.792;2022-11-13T03:53:42;16.83;;;10.63;;
46481;SDS011;32193;51.446;6.792;2022-11-13T03:56:07;20.35;;;11.95;;
46481;SDS011;32193;51.446;6.792;2022-11-13T03:58:33;19.98;;;11.57;;
46481;SDS011;32193;51.446;6.792;2022-11-13T04:00:59;16.33;;;10.32;;
46481;SDS011;32193;51.446;6.792;2022-11-13T04:03:25;22.88;;;12.32;;
46481;SDS011;32193;51.446;6.792;2022-11-13T04:05:51;20.85;;;11.93;;
46481;SDS011;32193;51.446;6.792;2022-11-13T04:08:17;21.00;;;12.38;;
46481;SDS011;32193;51.446;6.792;2022-11-13T04:10:43;20.85;;;12.15;;
46481;SDS011;32193;51.446;6.792;2022-11-13T04:13:09;20.33;;;12.02;;
46481;SDS011;32193;51.446;6.792;2022-11-13T04:15:35;19.23;;;9.93;;
46481;SDS011;32193;51.446;6.792;2022-11-13T04:18:01;20.00;;;11.73;;
46481;SDS011;32193;51.446;6.792;2022-11-13T04:20:27;19.13;;;10.48;;
46481;SDS011;32193;51.446;6.792;2022-11-13T04:22:54;20.00;;;10.23;;
46481;SDS011;32193;51.446;6.792;2022-11-13T04:25:21;22.20;;;10.80;;
46481;SDS011;32193;51.446;6.792;2022-11-13T04:27:48;14.32;;;7.80;;
46481;SDS011;32193;51.446;6.792;2022-11-13T04:30:14;18.35;;;11.05;;
46481;SDS011;32193;51.446;6.792;2022-11-13T04:32:39;17.35;;;9.60;;
46481;SDS011;32193;51.446;6.792;2022-11-13T04:35:05;18.73;;;10.38;;
46481;SDS011;32193;51.446;6.792;2022-11-13T04:37:32;19.58;;;11.65;;
46481;SDS011;32193;51.446;6.792;2022-11-13T04:39:58;17.73;;;10.23;;
46481;SDS011;32193;51.446;6.792;2022-11-13T04:42:23;21.35;;;10.95;;
46481;SDS011;32193;51.446;6.792;2022-11-13T04:47:33;20.75;;;10.82;;
46481;SDS011;32193;51.446;6.792;2022-11-13T04:49:59;25.58;;;13.32;;
46481;SDS011;32193;51.446;6.792;2022-11-13T04:52:25;19.60;;;11.18;;
46481;SDS011;32193;51.446;6.792;2022-11-13T04:54:52;22.20;;;11.18;;
46481;SDS011;32193;51.446;6.792;2022-11-13T04:57:18;16.85;;;9.25;;
46481;SDS011;32193;51.446;6.792;2022-11-13T04:59:44;21.13;;;10.68;;
46481;SDS011;32193;51.446;6.792;2022-11-13T05:02:09;17.80;;;9.15;;
46481;SDS011;32193;51.446;6.792;2022-11-13T05:04:35;15.13;;;8.23;;
46481;SDS011;32193;51.446;6.792;2022-11-13T05:07:01;17.05;;;7.72;;
46481;SDS011;32193;51.446;6.792;2022-11-13T05:09:27;19.67;;;10.98;;
46481;SDS011;32193;51.446;6.792;2022-11-13T05:11:52;16.45;;;9.57;;
46481;SDS011;32193;51.446;6.792;2022-11-13T05:14:18;18.45;;;9.10;;
46481;SDS011;32193;51.446;6.792;2022-11-13T05:16:43;13.10;;;8.05;;
46481;SDS011;32193;51.446;6.792;2022-11-13T05:19:09;14.13;;;8.00;;
46481;SDS011;32193;51.446;6.792;2022-11-13T05:21:36;15.57;;;8.40;;
46481;SDS011;32193;51.446;6.792;2022-11-13T05:24:03;17.48;;;9.23;;
46481;SDS011;32193;51.446;6.792;2022-11-13T05:26:30;18.13;;;9.23;;
46481;SDS011;32193;51.446;6.792;2022-11-13T05:28:56;17.38;;;9.10;;
46481;SDS011;32193;51.446;6.792;2022-11-13T05:31:23;14.98;;;8.43;;
46481;SDS011;32193;51.446;6.792;2022-11-13T05:33:50;14.45;;;8.65;;
46481;SDS011;32193;51.446;6.792;2022-11-13T05:36:16;13.43;;;7.53;;
46481;SDS011;32193;51.446;6.792;2022-11-13T05:38:43;13.85;;;7.97;;
46481;SDS011;32193;51.446;6.792;2022-11-13T05:41:10;16.45;;;7.63;;
46481;SDS011;32193;51.446;6.792;2022-11-13T05:43:36;13.38;;;6.70;;
46481;SDS011;32193;51.446;6.792;2022-11-13T05:46:04;14.85;;;6.80;;
46481;SDS011;32193;51.446;6.792;2022-11-13T05:48:37;13.02;;;7.68;;
46481;SDS011;32193;51.446;6.792;2022-11-13T05:51:05;13.82;;;7.95;;
46481;SDS011;32193;51.446;6.792;2022-11-13T05:53:31;13.68;;;7.63;;
46481;SDS011;32193;51.446;6.792;2022-11-13T05:56:05;11.00;;;6.43;;
46481;SDS011;32193;51.446;6.792;2022-11-13T05:58:35;10.80;;;5.40;;
46481;SDS011;32193;51.446;6.792;2022-11-13T06:01:09;9.95;;;5.57;;
46481;SDS011;32193;51.446;6.792;2022-11-13T06:03:35;10.75;;;6.00;;
46481;SDS011;32193;51.446;6.792;2022-11-13T06:06:01;10.63;;;5.53;;
46481;SDS011;32193;51.446;6.792;2022-11-13T06:08:28;12.25;;;6.30;;
46481;SDS011;32193;51.446;6.792;2022-11-13T06:11:01;11.45;;;6.03;;
46481;SDS011;32193;51.446;6.792;2022-11-13T06:15:54;16.17;;;6.97;;
46481;SDS011;32193;51.446;6.792;2022-11-13T06:18:29;18.63;;;6.72;;
46481;SDS011;32193;51.446;6.792;2022-11-13T06:20:55;22.45;;;8.52;;
46481;SDS011;32193;51.446;6.792;2022-11-13T06:23:24;15.73;;;7.00;;
46481;SDS011;32193;51.446;6.792;2022-11-13T06:25:49;12.20;;;6.70;;
46481;SDS011;32193;51.446;6.792;2022-11-13T06:28:15;13.48;;;7.32;;
46481;SDS011;32193;51.446;6.792;2022-11-13T06:30:40;13.25;;;7.05;;
46481;SDS011;32193;51.446;6.792;2022-11-13T06:33:06;13.90;;;7.00;;
46481;SDS011;32193;51.446;6.792;2022-11-13T06:35:32;13.75;;;6.60;;
46481;SDS011;32193;51.446;6.792;2022-11-13T06:37:57;14.10;;;7.20;;
46481;SDS011;32193;51.446;6.792;2022-11-13T06:40:23;14.35;;;7.60;;
46481;SDS011;32193;51.446;6.792;2022-11-13T06:42:48;13.68;;;8.32;;
46481;SDS011;32193;51.446;6.792;2022-11-13T06:45:14;18.35;;;7.78;;
46481;SDS011;32193;51.446;6.792;2022-11-13T06:47:40;16.55;;;8.27;;
46481;SDS011;32193;51.446;6.792;2022-11-13T06:50:06;17.35;;;8.35;;
46481;SDS011;32193;51.446;6.792;2022-11-13T06:52:32;16.30;;;9.00;;
46481;SDS011;32193;51.446;6.792;2022-11-13T06:54:58;18.92;;;8.93;;
46481;SDS011;32193;51.446;6.792;2022-11-13T06:57:25;15.05;;;8.57;;
46481;SDS011;32193;51.446;6.792;2022-11-13T06:59:51;16.15;;;8.40;;
46481;SDS011;32193;51.446;6.792;2022-11-13T07:02:16;12.77;;;7.97;;
46481;SDS011;32193;51.446;6.792;2022-11-13T07:04:42;13.80;;;7.75;;
46481;SDS011;32193;51.446;6.792;2022-11-13T07:07:07;15.63;;;8.75;;
46481;SDS011;32193;51.446;6.792;2022-11-13T07:09:33;18.70;;;9.30;;
46481;SDS011;32193;51.446;6.792;2022-11-13T07:11:59;14.63;;;8.50;;
46481;SDS011;32193;51.446;6.792;2022-11-13T07:14:25;13.38;;;7.28;;
46481;SDS011;32193;51.446;6.792;2022-11-13T07:16:50;16.30;;;7.82;;
46481;SDS011;32193;51.446;6.792;2022-11-13T07:19:16;18.35;;;8.35;;
46481;SDS011;32193;51.446;6.792;2022-11-13T07:21:41;23.02;;;8.60;;
46481;SDS011;32193;51.446;6.792;2022-11-13T07:24:07;20.73;;;8.05;;
46481;SDS011;32193;51.446;6.792;2022-11-13T07:26:32;17.80;;;8.60;;
46481;SDS011;32193;51.446;6.792;2022-11-13T07:28:58;18.40;;;7.72;;
46481;SDS011;32193;51.446;6.792;2022-11-13T07:31:23;24.20;;;8.32;;
46481;SDS011;32193;51.446;6.792;2022-11-13T07:33:49;15.63;;;7.28;;
46481;SDS011;32193;51.446;6.792;2022-11-13T07:36:16;19.80;;;7.38;;
46481;SDS011;32193;51.446;6.792;2022-11-13T07:38:41;14.55;;;7.72;;
46481;SDS011;32193;51.446;6.792;2022-11-13T07:41:07;20.65;;;8.18;;
46481;SDS011;32193;51.446;6.792;2022-11-13T07:43:33;14.60;;;8.18;;
46481;SDS011;32193;51.446;6.792;2022-11-13T07:45:59;13.02;;;7.60;;
46481;SDS011;32193;51.446;6.792;2022-11-13T07:48:25;15.52;;;7.65;;
46481;SDS011;32193;51.446;6.792;2022-11-13T07:50:51;14.32;;;8.27;;
46481;SDS011;32193;51.446;6.792;2022-11-13T07:53:17;18.88;;;9.70;;
46481;SDS011;32193;51.446;6.792;2022-11-13T07:55:44;18.02;;;9.02;;
46481;SDS011;32193;51.446;6.792;2022-11-13T07:58:10;16.08;;;7.63;;
46481;SDS011;32193;51.446;6.792;2022-11-13T08:00:36;17.73;;;9.05;;
46481;SDS011;32193;51.446;6.792;2022-11-13T08:03:05;20.77;;;7.88;;
46481;SDS011;32193;51.446;6.792;2022-11-13T08:05:33;15.40;;;8.60;;
46481;SDS011;32193;51.446;6.792;2022-11-13T08:07:59;15.65;;;7.88;;
46481;SDS011;32193;51.446;6.792;2022-11-13T08:10:25;15.70;;;7.53;;
46481;SDS011;32193;51.446;6.792;2022-11-13T08:12:56;14.18;;;8.07;;
46481;SDS011;32193;51.446;6.792;2022-11-13T08:15:27;15.40;;;9.02;;
46481;SDS011;32193;51.446;6.792;2022-11-13T08:17:54;15.38;;;8.27;;
46481;SDS011;32193;51.446;6.792;2022-11-13T08:20:20;15.85;;;9.13;;
46481;SDS011;32193;51.446;6.792;2022-11-13T08:22:46;16.02;;;8.93;;
46481;SDS011;32193;51.446;6.792;2022-11-13T08:25:12;24.13;;;7.63;;
46481;SDS011;32193;51.446;6.792;2022-11-13T08:27:37;14.70;;;8.07;;
46481;SDS011;32193;51.446;6.792;2022-11-13T08:30:03;13.70;;;7.65;;
46481;SDS011;32193;51.446;6.792;2022-11-13T08:32:29;12.75;;;7.35;;
46481;SDS011;32193;51.446;6.792;2022-11-13T08:34:55;16.75;;;7.80;;
46481;SDS011;32193;51.446;6.792;2022-11-13T08:37:21;20.30;;;8.55;;
46481;SDS011;32193;51.446;6.792;2022-11-13T08:39:46;14.88;;;7.35;;
46481;SDS011;32193;51.446;6.792;2022-11-13T08:42:12;17.30;;;7.50;;
46481;SDS011;32193;51.446;6.792;2022-11-13T08:44:38;21.45;;;8.65;;
46481;SDS011;32193;51.446;6.792;2022-11-13T08:47:04;15.00;;;7.22;;
46481;SDS011;32193;51.446;6.792;2022-11-13T08:49:29;21.70;;;8.13;;
46481;SDS011;32193;51.446;6.792;2022-11-13T08:51:55;15.55;;;7.20;;
46481;SDS011;32193;51.446;6.792;2022-11-13T08:54:20;13.10;;;6.90;;
46481;SDS011;32193;51.446;6.792;2022-11-13T08:56:46;15.77;;;6.47;;
46481;SDS011;32193;51.446;6.792;2022-11-13T08:59:12;11.73;;;6.43;;
46481;SDS011;32193;51.446;6.792;2022-11-13T09:01:38;15.15;;;6.90;;
46481;SDS011;32193;51.446;6.792;2022-11-13T09:04:04;15.90;;;6.30;;
46481;SDS011;32193;51.446;6.792;2022-11-13T09:06:30;20.52;;;6.97;;
46481;SDS011;32193;51.446;6.792;2022-11-13T09:08:56;18.20;;;7.18;;
46481;SDS011;32193;51.446;6.792;2022-11-13T09:11:21;12.93;;;6.82;;
46481;SDS011;32193;51.446;6.792;2022-11-13T09:13:47;14.15;;;6.95;;
46481;SDS011;32193;51.446;6.792;2022-11-13T09:16:12;11.52;;;6.22;;
46481;SDS011;32193;51.446;6.792;2022-11-13T09:18:38;11.40;;;6.85;;
46481;SDS011;32193;51.446;6.792;2022-11-13T09:21:04;12.45;;;7.22;;
46481;SDS011;32193;51.446;6.792;2022-11-13T09:23:30;9.60;;;6.15;;
46481;SDS011;32193;51.446;6.792;2022-11-13T09:25:59;12.95;;;7.07;;
46481;SDS011;32193;51.446;6.792;2022-11-13T09:28:26;12.90;;;6.72;;
46481;SDS011;32193;51.446;6.792;2022-11-13T09:30:52;12.77;;;6.53;;
46481;SDS011;32193;51.446;6.792;2022-11-13T09:33:18;13.63;;;7.65;;
46481;SDS011;32193;51.446;6.792;2022-11-13T09:35:44;11.90;;;7.13;;
46481;SDS011;32193;51.446;6.792;2022-11-13T09:38:11;9.95;;;5.90;;
46481;SDS011;32193;51.446;6.792;2022-11-13T09:40:52;11.73;;;6.55;;
46481;SDS011;32193;51.446;6.792;2022-11-13T09:46:03;10.32;;;6.22;;
46481;SDS011;32193;51.446;6.792;2022-11-13T09:48:36;37.20;;;23.85;;
46481;SDS011;32193;51.446;6.792;2022-11-13T09:51:08;18.45;;;12.13;;
46481;SDS011;32193;51.446;6.792;2022-11-13T09:53:39;10.40;;;6.60;;
46481;SDS011;32193;51.446;6.792;2022-11-13T10:01:45;13.95;;;7.88;;
46481;SDS011;32193;51.446;6.792;2022-11-13T10:04:15;11.02;;;7.20;;
46481;SDS011;32193;51.446;6.792;2022-11-13T10:12:47;13.25;;;8.00;;
46481;SDS011;32193;51.446;6.792;2022-11-13T10:15:15;15.35;;;7.13;;
46481;SDS011;32193;51.446;6.792;2022-11-13T10:17:47;13.75;;;7.20;;
46481;SDS011;32193;51.446;6.792;2022-11-13T10:22:52;15.55;;;8.25;;
46481;SDS011;32193;51.446;6.792;2022-11-13T10:25:39;12.60;;;8.05;;
46481;SDS011;32193;51.446;6.792;2022-11-13T10:28:11;13.50;;;8.40;;
46481;SDS011;32193;51.446;6.792;2022-11-13T10:30:42;14.95;;;8.40;;
46481;SDS011;32193;51.446;6.792;2022-11-13T10:33:12;15.13;;;9.18;;
46481;SDS011;32193;51.446;6.792;2022-11-13T10:41:17;13.50;;;8.73;;
46481;SDS011;32193;51.446;6.792;2022-11-13T10:43:53;15.07;;;8.65;;
46481;SDS011;32193;51.446;6.792;2022-11-13T10:46:23;15.23;;;9.95;;
46481;SDS011;32193;51.446;6.792;2022-11-13T10:48:53;16.27;;;9.88;;
46481;SDS011;32193;51.446;6.792;2022-11-13T10:53:56;15.18;;;8.93;;
46481;SDS011;32193;51.446;6.792;2022-11-13T10:59:10;14.20;;;8.73;;
46481;SDS011;32193;51.446;6.792;2022-11-13T11:01:38;14.63;;;9.32;;
46481;SDS011;32193;51.446;6.792;2022-11-13T11:04:05;17.15;;;9.15;;
46481;SDS011;32193;51.446;6.792;2022-11-13T11:06:33;13.50;;;8.90;;
46481;SDS011;32193;51.446;6.792;2022-11-13T11:17:21;11.60;;;7.38;;
46481;SDS011;32193;51.446;6.792;2022-11-13T11:22:38;13.32;;;7.10;;
46481;SDS011;32193;51.446;6.792;2022-11-13T11:28:14;13.13;;;7.25;;
46481;SDS011;32193;51.446;6.792;2022-11-13T11:30:41;15.77;;;6.50;;
46481;SDS011;32193;51.446;6.792;2022-11-13T11:33:33;13.90;;;7.82;;
46481;SDS011;32193;51.446;6.792;2022-11-13T11:38:48;14.90;;;6.95;;
46481;SDS011;32193;51.446;6.792;2022-11-13T11:41:25;12.32;;;5.82;;
46481;SDS011;32193;51.446;6.792;2022-11-13T11:44:18;14.38;;;6.65;;
46481;SDS011;32193;51.446;6.792;2022-11-13T11:46:49;12.57;;;6.28;;
46481;SDS011;32193;51.446;6.792;2022-11-13T11:49:14;14.77;;;6.03;;
46481;SDS011;32193;51.446;6.792;2022-11-13T11:51:51;12.45;;;5.85;;
46481;SDS011;32193;51.446;6.792;2022-11-13T12:00:13;11.70;;;4.97;;
46481;SDS011;32193;51.446;6.792;2022-11-13T12:02:50;10.15;;;4.90;;
46481;SDS011;32193;51.446;6.792;2022-11-13T12:08:08;11.05;;;4.90;;
46481;SDS011;32193;51.446;6.792;2022-11-13T12:11:00;8.57;;;4.45;;
46481;SDS011;32193;51.446;6.792;2022-11-13T12:13:46;9.35;;;4.60;;
46481;SDS011;32193;51.446;6.792;2022-11-13T12:16:42;8.77;;;5.10;;
46481;SDS011;32193;51.446;6.792;2022-11-13T12:21:53;13.40;;;5.13;;
46481;SDS011;32193;51.446;6.792;2022-11-13T12:35:16;9.53;;;4.93;;
46481;SDS011;32193;51.446;6.792;2022-11-13T12:37:51;11.55;;;5.18;;
46481;SDS011;32193;51.446;6.792;2022-11-13T12:40:33;9.95;;;5.00;;
46481;SDS011;32193;51.446;6.792;2022-11-13T12:45:49;12.57;;;5.65;;
46481;SDS011;32193;51.446;6.792;2022-11-13T12:48:21;10.63;;;5.70;;
46481;SDS011;32193;51.446;6.792;2022-11-13T12:51:02;11.98;;;5.53;;
46481;SDS011;32193;51.446;6.792;2022-11-13T12:53:41;10.30;;;6.10;;
46481;SDS011;32193;51.446;6.792;2022-11-13T12:56:11;13.10;;;5.72;;
46481;SDS011;32193;51.446;6.792;2022-11-13T12:59:10;12.55;;;5.97;;
46481;SDS011;32193;51.446;6.792;2022-11-13T13:01:58;13.48;;;5.88;;
46481;SDS011;32193;51.446;6.792;2022-11-13T13:17:44;8.25;;;4.35;;
46481;SDS011;32193;51.446;6.792;2022-11-13T13:22:39;10.13;;;5.25;;
46481;SDS011;32193;51.446;6.792;2022-11-13T13:25:06;9.38;;;4.10;;
46481;SDS011;32193;51.446;6.792;2022-11-13T13:28:00;13.70;;;4.53;;
46481;SDS011;32193;51.446;6.792;2022-11-13T13:30:27;8.93;;;3.58;;
46481;SDS011;32193;51.446;6.792;2022-11-13T13:36:06;7.95;;;3.85;;
46481;SDS011;32193;51.446;6.792;2022-11-13T13:39:03;8.77;;;3.30;;
46481;SDS011;32193;51.446;6.792;2022-11-13T13:47:21;7.18;;;3.60;;
46481;SDS011;32193;51.446;6.792;2022-11-13T13:49:53;8.40;;;4.15;;
46481;SDS011;32193;51.446;6.792;2022-11-13T13:52:22;8.50;;;4.60;;
46481;SDS011;32193;51.446;6.792;2022-11-13T13:54:55;9.23;;;4.70;;
46481;SDS011;32193;51.446;6.792;2022-11-13T13:57:23;8.10;;;4.47;;
46481;SDS011;32193;51.446;6.792;2022-11-13T13:59:50;10.32;;;4.93;;
46481;SDS011;32193;51.446;6.792;2022-11-13T14:02:19;10.85;;;4.75;;
46481;SDS011;32193;51.446;6.792;2022-11-13T14:04:50;9.57;;;4.90;;
46481;SDS011;32193;51.446;6.792;2022-11-13T14:07:21;9.43;;;5.00;;
46481;SDS011;32193;51.446;6.792;2022-11-13T14:10:12;8.95;;;5.07;;
46481;SDS011;32193;51.446;6.792;2022-11-13T14:12:43;8.82;;;4.70;;
46481;SDS011;32193;51.446;6.792;2022-11-13T14:15:21;9.63;;;4.88;;
46481;SDS011;32193;51.446;6.792;2022-11-13T14:17:52;11.68;;;4.78;;
46481;SDS011;32193;51.446;6.792;2022-11-13T14:20:31;8.07;;;4.15;;
46481;SDS011;32193;51.446;6.792;2022-11-13T14:23:11;8.52;;;4.05;;
46481;SDS011;32193;51.446;6.792;2022-11-13T14:25:39;12.75;;;4.38;;
46481;SDS011;32193;51.446;6.792;2022-11-13T14:28:10;7.60;;;3.40;;
46481;SDS011;32193;51.446;6.792;2022-11-13T14:30:41;7.55;;;3.35;;
46481;SDS011;32193;51.446;6.792;2022-11-13T14:33:07;6.07;;;2.88;;
46481;SDS011;32193;51.446;6.792;2022-11-13T14:35:35;6.05;;;2.97;;
46481;SDS011;32193;51.446;6.792;2022-11-13T14:38:03;10.25;;;4.03;;
46481;SDS011;32193;51.446;6.792;2022-11-13T14:40:29;7.90;;;3.38;;
46481;SDS011;32193;51.446;6.792;2022-11-13T14:42:58;6.32;;;3.15;;
46481;SDS011;32193;51.446;6.792;2022-11-13T14:45:31;5.97;;;3.00;;
46481;SDS011;32193;51.446;6.792;2022-11-13T14:48:17;7.95;;;3.05;;
46481;SDS011;32193;51.446;6.792;2022-11-13T14:50:48;7.22;;;3.60;;
46481;SDS011;32193;51.446;6.792;2022-11-13T14:55:54;6.57;;;2.92;;
46481;SDS011;32193;51.446;6.792;2022-11-13T14:58:25;10.27;;;3.38;;
46481;SDS011;32193;51.446;6.792;2022-11-13T15:03:45;8.70;;;3.05;;
46481;SDS011;32193;51.446;6.792;2022-11-13T15:06:13;9.45;;;3.40;;
46481;SDS011;32193;51.446;6.792;2022-11-13T15:08:44;8.93;;;3.35;;
46481;SDS011;32193;51.446;6.792;2022-11-13T15:11:15;7.07;;;3.75;;
46481;SDS011;32193;51.446;6.792;2022-11-13T15:13:42;7.13;;;3.70;;
46481;SDS011;32193;51.446;6.792;2022-11-13T15:16:11;9.65;;;3.67;;
46481;SDS011;32193;51.446;6.792;2022-11-13T15:18:38;8.05;;;3.30;;
46481;SDS011;32193;51.446;6.792;2022-11-13T15:21:06;9.45;;;3.65;;
46481;SDS011;32193;51.446;6.792;2022-11-13T15:23:32;7.22;;;3.90;;
46481;SDS011;32193;51.446;6.792;2022-11-13T15:25:57;8.63;;;4.32;;
46481;SDS011;32193;51.446;6.792;2022-11-13T15:28:23;10.32;;;3.97;;
46481;SDS011;32193;51.446;6.792;2022-11-13T15:30:49;10.45;;;4.20;;
46481;SDS011;32193;51.446;6.792;2022-11-13T15:33:15;9.57;;;4.55;;
46481;SDS011;32193;51.446;6.792;2022-11-13T15:35:41;9.40;;;4.20;;
46481;SDS011;32193;51.446;6.792;2022-11-13T15:38:10;13.35;;;4.65;;
46481;SDS011;32193;51.446;6.792;2022-11-13T15:40:36;8.27;;;4.68;;
46481;SDS011;32193;51.446;6.792;2022-11-13T15:43:03;11.35;;;4.30;;
46481;SDS011;32193;51.446;6.792;2022-11-13T15:45:29;8.25;;;4.35;;
46481;SDS011;32193;51.446;6.792;2022-11-13T15:47:55;9.50;;;4.90;;
46481;SDS011;32193;51.446;6.792;2022-11-13T15:50:21;9.00;;;4.40;;
46481;SDS011;32193;51.446;6.792;2022-11-13T15:52:48;8.30;;;4.55;;
46481;SDS011;32193;51.446;6.792;2022-11-13T15:57:41;8.15;;;4.28;;
46481;SDS011;32193;51.446;6.792;2022-11-13T16:00:11;8.60;;;4.95;;
46481;SDS011;32193;51.446;6.792;2022-11-13T16:02:38;17.30;;;4.85;;
46481;SDS011;32193;51.446;6.792;2022-11-13T16:05:05;8.82;;;4.97;;
46481;SDS011;32193;51.446;6.792;2022-11-13T16:07:31;16.48;;;5.78;;
46481;SDS011;32193;51.446;6.792;2022-11-13T16:09:57;8.63;;;5.00;;
46481;SDS011;32193;51.446;6.792;2022-11-13T16:12:23;9.85;;;5.18;;
46481;SDS011;32193;51.446;6.792;2022-11-13T16:14:49;7.70;;;4.60;;
46481;SDS011;32193;51.446;6.792;2022-11-13T16:17:15;11.85;;;5.03;;
46481;SDS011;32193;51.446;6.792;2022-11-13T16:19:46;10.10;;;5.15;;
46481;SDS011;32193;51.446;6.792;2022-11-13T16:22:20;14.45;;;6.55;;
46481;SDS011;32193;51.446;6.792;2022-11-13T16:24:47;11.60;;;4.78;;
46481;SDS011;32193;51.446;6.792;2022-11-13T16:27:14;9.77;;;5.30;;
46481;SDS011;32193;51.446;6.792;2022-11-13T16:29:48;11.88;;;5.47;;